Time;durP1;ratioP1;P1;durP2;ratioP2;P2;SDS_P1;SDS_P2;PMS_P1;PMS_P2;Temp;Humidity;BMP_temperature;BMP_pressure;BME280_temperature;BME280_humidity;BME280_pressure;Samples;Min_cycle;Max_cycle;Signal;HPM_P1;HPM_P2
2021/04/22 00:00:38;;;;;;;26.10;4.65;;;6.00;99.90;;;;;;4916367;29;20267;-62
2021/04/22 00:03:04;;;;;;;27.88;5.20;;;6.00;99.90;;;;;;4920523;29;20027;-62
2021/04/22 00:05:36;;;;;;;26.77;4.47;;;6.00;99.90;;;;;;4919779;29;20034;-62
2021/04/22 00:08:58;;;;;;;33.65;7.07;;;5.90;99.90;;;;;;4921197;29;20035;-62
2021/04/22 00:11:24;;;;;;;28.23;5.45;;;5.90;99.90;;;;;;4924359;29;20044;-62
2021/04/22 00:13:51;;;;;;;29.88;4.70;;;5.90;99.90;;;;;;4922959;29;20067;-62
2021/04/22 00:16:18;;;;;;;37.88;6.05;;;5.90;99.90;;;;;;4921913;29;20568;-62
2021/04/22 00:18:45;;;;;;;27.40;4.63;;;5.90;99.90;;;;;;4923460;29;20119;-62
2021/04/22 00:21:11;;;;;;;39.30;6.90;;;5.90;99.90;;;;;;4923482;29;20032;-64
2021/04/22 00:23:37;;;;;;;35.70;5.80;;;5.90;99.90;;;;;;4905019;29;20047;-62
2021/04/22 00:26:03;;;;;;;28.58;5.30;;;5.90;99.90;;;;;;4905188;29;20040;-62
2021/04/22 00:28:29;;;;;;;26.77;4.88;;;5.90;99.90;;;;;;4923801;29;20512;-62
2021/04/22 00:30:55;;;;;;;39.30;6.85;;;5.90;99.90;;;;;;4922744;29;20047;-62
2021/04/22 00:33:23;;;;;;;38.70;6.55;;;5.90;99.90;;;;;;4922854;29;20028;-62
2021/04/22 00:35:50;;;;;;;29.65;5.05;;;5.90;99.90;;;;;;4922728;29;20448;-62
2021/04/22 00:38:17;;;;;;;33.22;4.85;;;5.90;99.90;;;;;;4923660;29;20038;-62
2021/04/22 00:40:45;;;;;;;48.72;6.93;;;5.90;99.90;;;;;;4923073;29;20040;-62
2021/04/22 00:43:13;;;;;;;34.63;6.25;;;5.80;99.90;;;;;;4922765;29;20036;-62
2021/04/22 00:45:42;;;;;;;27.58;5.45;;;5.80;99.90;;;;;;4906419;29;20031;-62
2021/04/22 00:48:09;;;;;;;32.65;5.88;;;5.80;99.90;;;;;;4923689;29;20641;-62
2021/04/22 00:50:37;;;;;;;38.25;6.72;;;5.80;99.90;;;;;;4922058;29;20424;-62
2021/04/22 00:53:03;;;;;;;34.47;6.00;;;5.80;99.90;;;;;;4921506;29;20035;-62
2021/04/22 00:55:30;;;;;;;28.45;5.53;;;5.80;99.90;;;;;;4923452;29;20040;-62
2021/04/22 00:57:56;;;;;;;40.17;5.35;;;5.80;99.90;;;;;;4920687;29;20094;-62
2021/04/22 01:00:35;;;;;;;27.77;5.45;;;5.80;99.90;;;;;;4921492;29;20062;-62
2021/04/22 01:03:01;;;;;;;39.67;7.05;;;5.70;99.90;;;;;;4922328;29;20043;-62
2021/04/22 01:05:40;;;;;;;29.98;5.18;;;5.80;99.90;;;;;;4923337;29;20023;-62
2021/04/22 01:08:06;;;;;;;34.37;5.37;;;5.80;99.90;;;;;;4920208;29;20023;-62
2021/04/22 01:10:32;;;;;;;28.48;6.85;;;5.80;99.90;;;;;;4906628;29;20047;-64
2021/04/22 01:12:58;;;;;;;27.65;4.95;;;5.80;99.90;;;;;;4904119;29;20069;-62
2021/04/22 01:15:26;;;;;;;27.17;5.63;;;5.70;99.90;;;;;;4921486;29;20031;-62
2021/04/22 01:17:52;;;;;;;27.17;4.80;;;5.80;99.90;;;;;;4921394;29;20032;-63
2021/04/22 01:20:22;;;;;;;26.95;4.95;;;5.70;99.90;;;;;;4922729;29;20118;-62
2021/04/22 01:22:49;;;;;;;28.63;5.15;;;5.70;99.90;;;;;;4921081;29;20123;-62
2021/04/22 01:25:37;;;;;;;34.80;6.28;;;5.70;99.90;;;;;;4921640;29;20039;-62
2021/04/22 01:28:05;;;;;;;25.88;5.25;;;5.70;99.90;;;;;;4919734;29;20047;-62
2021/04/22 01:30:44;;;;;;;23.77;4.88;;;5.70;99.90;;;;;;4918614;29;20043;-62
2021/04/22 01:33:15;;;;;;;39.88;4.82;;;5.70;99.90;;;;;;4920876;29;20171;-62
2021/04/22 01:35:43;;;;;;;35.65;6.07;;;5.70;99.90;;;;;;4919478;29;20091;-62
2021/04/22 01:38:11;;;;;;;34.55;4.63;;;5.60;99.90;;;;;;4921920;29;20032;-62
2021/04/22 01:40:39;;;;;;;29.63;5.97;;;5.70;99.90;;;;;;4921322;29;20035;-62
2021/04/22 01:43:05;;;;;;;25.80;4.75;;;5.60;99.90;;;;;;4921226;29;20039;-62
2021/04/22 01:45:32;;;;;;;27.92;5.65;;;5.60;99.90;;;;;;4921055;29;20027;-62
2021/04/22 01:47:58;;;;;;;22.08;5.47;;;5.60;99.90;;;;;;4920581;29;20043;-62
2021/04/22 01:50:29;;;;;;;27.35;4.90;;;5.60;99.90;;;;;;4921856;29;20055;-62
2021/04/22 01:52:56;;;;;;;32.47;5.82;;;5.60;99.90;;;;;;4921212;29;20043;-62
2021/04/22 01:55:31;;;;;;;19.50;4.85;;;5.50;99.90;;;;;;4922892;29;20043;-62
2021/04/22 01:57:57;;;;;;;23.80;3.90;;;5.60;99.90;;;;;;4919838;29;20040;-62
2021/04/22 02:00:48;;;;;;;25.38;5.57;;;5.50;99.90;;;;;;4918621;29;20454;-62
2021/04/22 02:03:14;;;;;;;33.78;5.15;;;5.50;99.90;;;;;;4894297;29;20059;-62
2021/04/22 02:05:41;;;;;;;35.28;5.50;;;5.50;99.90;;;;;;4920135;29;20043;-62
2021/04/22 02:08:08;;;;;;;24.75;6.13;;;5.50;99.90;;;;;;4922400;29;20051;-62
2021/04/22 02:10:34;;;;;;;24.13;4.28;;;5.50;99.90;;;;;;4917588;29;20039;-62
2021/04/22 02:13:00;;;;;;;33.97;5.15;;;5.50;99.90;;;;;;4922296;29;20131;-62
2021/04/22 02:15:29;;;;;;;27.98;4.93;;;5.50;99.90;;;;;;4887378;29;20138;-62
2021/04/22 02:17:56;;;;;;;33.03;5.15;;;5.50;99.90;;;;;;4904522;29;20023;-62
2021/04/22 02:20:22;;;;;;;23.48;4.50;;;5.50;99.90;;;;;;4918474;29;20051;-62
2021/04/22 02:22:48;;;;;;;29.02;5.43;;;5.40;99.90;;;;;;4920965;29;20469;-62
2021/04/22 02:25:23;;;;;;;25.83;5.28;;;5.50;99.90;;;;;;4921491;29;20028;-62
2021/04/22 02:27:49;;;;;;;27.77;5.78;;;5.50;99.90;;;;;;4920158;29;20121;-62
2021/04/22 02:30:24;;;;;;;32.40;5.95;;;5.50;99.90;;;;;;4920531;29;20156;-62
2021/04/22 02:32:50;;;;;;;19.98;5.28;;;5.50;99.90;;;;;;4920696;29;20119;-62
2021/04/22 02:35:20;;;;;;;33.25;6.72;;;5.50;99.90;;;;;;4920631;29;20146;-63
2021/04/22 02:37:46;;;;;;;25.83;4.78;;;5.50;99.90;;;;;;4919992;29;20035;-62
2021/04/22 02:40:16;;;;;;;29.95;6.47;;;5.50;99.90;;;;;;4920634;29;20038;-62
2021/04/22 02:42:43;;;;;;;38.30;5.63;;;5.50;99.90;;;;;;4921152;29;20036;-62
2021/04/22 02:45:16;;;;;;;29.83;6.15;;;5.50;99.90;;;;;;4918959;29;20043;-62
2021/04/22 02:47:43;;;;;;;27.77;5.95;;;5.50;99.90;;;;;;4920905;29;20577;-62
2021/04/22 02:50:13;;;;;;;27.13;5.57;;;5.50;99.90;;;;;;4919629;29;20099;-62
2021/04/22 02:52:39;;;;;;;;;;;5.40;99.90;;;;;;4920944;29;20039;-62
2021/04/22 02:55:06;;;;;;;25.40;5.28;;;5.50;99.90;;;;;;4920763;29;19921;-62
2021/04/22 02:57:32;;;;;;;31.10;5.32;;;5.50;99.90;;;;;;4920239;29;20086;-62
2021/04/22 02:59:58;;;;;;;35.42;5.85;;;5.50;99.90;;;;;;4919597;29;20039;-62
2021/04/22 03:02:24;;;;;;;34.58;7.05;;;5.50;99.90;;;;;;4904018;29;20042;-62
2021/04/22 03:04:50;;;;;;;28.50;6.68;;;5.40;99.90;;;;;;4919662;29;20154;-62
2021/04/22 03:07:16;;;;;;;28.65;5.32;;;5.40;99.90;;;;;;4919697;29;20042;-62
2021/04/22 03:09:42;;;;;;;35.05;6.20;;;5.40;99.90;;;;;;4921619;29;20158;-63
2021/04/22 03:12:09;;;;;;;34.95;6.15;;;5.40;99.90;;;;;;4920063;29;20035;-62
2021/04/22 03:14:35;;;;;;;28.73;5.25;;;5.40;99.90;;;;;;4920415;29;20038;-62
2021/04/22 03:17:01;;;;;;;28.05;6.45;;;5.50;99.90;;;;;;4902798;29;20039;-62
2021/04/22 03:19:27;;;;;;;28.85;5.28;;;5.40;99.90;;;;;;4920716;29;20059;-62
2021/04/22 03:21:53;;;;;;;23.00;5.03;;;5.40;99.90;;;;;;4920606;29;20175;-62
2021/04/22 03:24:19;;;;;;;30.52;6.75;;;5.40;99.90;;;;;;4918774;29;20030;-62
2021/04/22 03:26:45;;;;;;;28.17;6.28;;;5.40;99.90;;;;;;4921059;29;20036;-62
2021/04/22 03:29:11;;;;;;;25.75;4.82;;;5.30;99.90;;;;;;4919668;29;21542;-63
2021/04/22 03:31:37;;;;;;;25.58;5.53;;;5.40;99.90;;;;;;4919788;29;20399;-63
2021/04/22 03:34:03;;;;;;;28.70;5.43;;;5.40;99.90;;;;;;4921137;29;20027;-62
2021/04/22 03:36:28;;;;;;;31.02;5.68;;;5.40;99.90;;;;;;4919374;29;20939;-62
2021/04/22 03:38:54;;;;;;;25.60;5.07;;;5.30;99.90;;;;;;4920098;29;20063;-62
2021/04/22 03:41:21;;;;;;;29.27;5.53;;;5.30;99.90;;;;;;4919801;29;20495;-62
2021/04/22 03:43:47;;;;;;;33.22;5.93;;;5.30;99.90;;;;;;4922991;29;20051;-62
2021/04/22 03:46:12;;;;;;;29.10;5.68;;;5.30;99.90;;;;;;4925947;29;20039;-62
2021/04/22 03:48:38;;;;;;;33.47;5.22;;;5.20;99.90;;;;;;4925330;29;20041;-62
2021/04/22 03:51:04;;;;;;;33.38;5.13;;;5.20;99.90;;;;;;4925183;29;20075;-62
2021/04/22 03:53:30;;;;;;;24.80;5.25;;;5.20;99.90;;;;;;4926814;29;20043;-62
2021/04/22 03:55:56;;;;;;;36.28;6.45;;;5.20;99.90;;;;;;4926144;29;20038;-62
2021/04/22 03:58:22;;;;;;;35.80;6.60;;;5.20;99.90;;;;;;4924689;29;20156;-62
2021/04/22 04:00:48;;;;;;;28.15;6.25;;;5.10;99.90;;;;;;4926735;29;20074;-62
2021/04/22 04:03:13;;;;;;;27.35;4.60;;;5.20;99.90;;;;;;4925508;29;20166;-62
2021/04/22 04:05:39;;;;;;;28.83;5.15;;;5.20;99.90;;;;;;4925862;29;20040;-62
2021/04/22 04:08:06;;;;;;;26.63;5.53;;;5.20;99.90;;;;;;4926557;29;20024;-62
2021/04/22 04:10:32;;;;;;;29.88;5.35;;;5.20;99.90;;;;;;4925664;29;20047;-62
2021/04/22 04:12:58;;;;;;;23.58;5.00;;;5.20;99.90;;;;;;4925656;29;20020;-62
2021/04/22 04:15:24;;;;;;;25.58;5.90;;;5.20;99.90;;;;;;4925843;29;20071;-62
2021/04/22 04:17:50;;;;;;;30.65;6.25;;;5.20;99.90;;;;;;4924520;29;20121;-63
2021/04/22 04:20:16;;;;;;;21.52;6.35;;;5.20;99.90;;;;;;4924197;29;20031;-62
2021/04/22 04:22:42;;;;;;;22.45;4.93;;;5.20;99.90;;;;;;4922043;29;20031;-62
2021/04/22 04:25:10;;;;;;;35.70;6.97;;;5.20;99.90;;;;;;4925475;29;20037;-62
2021/04/22 04:27:37;;;;;;;27.20;6.05;;;5.20;99.90;;;;;;4925244;29;20035;-62
2021/04/22 04:30:05;;;;;;;33.60;6.93;;;5.20;99.90;;;;;;4925738;29;20444;-62
2021/04/22 04:32:32;;;;;;;24.10;6.35;;;5.30;99.90;;;;;;4923869;29;20391;-62
2021/04/22 04:34:58;;;;;;;22.80;5.95;;;5.30;99.90;;;;;;4923938;29;20028;-62
2021/04/22 04:37:23;;;;;;;24.02;6.53;;;5.30;99.90;;;;;;4921419;29;20391;-62
2021/04/22 04:39:50;;;;;;;30.05;6.47;;;5.30;99.90;;;;;;4925978;29;20044;-62
2021/04/22 04:42:16;;;;;;;19.75;5.53;;;5.30;99.90;;;;;;4926116;29;20042;-62
2021/04/22 04:44:42;;;;;;;21.50;5.53;;;5.30;99.90;;;;;;4924295;29;20028;-62
2021/04/22 04:47:08;;;;;;;22.17;5.22;;;5.40;99.90;;;;;;4908965;29;20074;-62
2021/04/22 04:49:34;;;;;;;27.52;6.15;;;5.40;99.90;;;;;;4908333;29;20057;-62
2021/04/22 04:52:00;;;;;;;24.15;6.63;;;5.40;99.90;;;;;;4921508;29;20032;-61
2021/04/22 04:54:26;;;;;;;22.67;5.38;;;5.40;99.90;;;;;;4919053;29;20032;-62
2021/04/22 04:56:51;;;;;;;39.22;7.80;;;5.50;99.90;;;;;;4921394;29;20048;-79
2021/04/22 04:59:17;;;;;;;22.17;5.75;;;5.50;99.90;;;;;;4923790;29;20040;-79
2021/04/22 05:01:43;;;;;;;18.15;5.70;;;5.50;99.90;;;;;;4922327;29;20047;-78
2021/04/22 05:04:09;;;;;;;21.13;5.35;;;5.50;99.90;;;;;;4923877;29;20040;-79
2021/04/22 05:06:35;;;;;;;23.98;5.97;;;5.60;99.90;;;;;;4924716;29;20035;-78
2021/04/22 05:09:01;;;;;;;28.92;6.80;;;5.70;99.90;;;;;;4905650;29;20191;-79
2021/04/22 05:11:27;;;;;;;29.23;5.80;;;5.70;99.90;;;;;;4922995;29;20063;-78
2021/04/22 05:13:53;;;;;;;27.45;6.35;;;5.80;99.90;;;;;;4922578;29;20032;-78
2021/04/22 05:16:18;;;;;;;24.17;5.78;;;5.80;99.90;;;;;;4925462;29;20039;-79
2021/04/22 05:18:45;;;;;;;22.77;5.10;;;5.90;99.90;;;;;;4921666;29;20605;-79
2021/04/22 05:21:11;;;;;;;20.63;5.57;;;5.90;99.90;;;;;;4924787;29;20032;-78
2021/04/22 05:23:37;;;;;;;30.42;6.15;;;6.00;99.90;;;;;;4920621;29;20095;-78
2021/04/22 05:26:02;;;;;;;27.77;6.13;;;6.10;99.90;;;;;;4917394;29;20046;-78
2021/04/22 05:28:28;;;;;;;20.35;5.38;;;6.10;99.90;;;;;;4922993;29;20068;-78
2021/04/22 05:30:54;;;;;;;28.45;5.72;;;6.20;99.90;;;;;;4924956;29;20075;-78
2021/04/22 05:33:20;;;;;;;25.88;6.03;;;6.30;99.90;;;;;;4901453;29;20031;-78
2021/04/22 05:35:46;;;;;;;28.23;6.32;;;6.40;99.90;;;;;;4917285;29;20118;-78
2021/04/22 05:38:12;;;;;;;24.15;6.38;;;6.50;99.90;;;;;;4923650;29;20038;-79
2021/04/22 05:40:38;;;;;;;23.67;5.93;;;6.60;99.90;;;;;;4921934;29;20149;-79
2021/04/22 05:43:07;;;;;;;33.42;6.57;;;6.70;99.90;;;;;;4922676;29;20043;-78
2021/04/22 05:45:33;;;;;;;23.70;6.20;;;6.70;99.90;;;;;;4923180;29;20032;-78
2021/04/22 05:47:59;;;;;;;32.30;6.03;;;6.80;99.90;;;;;;4920362;29;20816;-78
2021/04/22 05:50:25;;;;;;;21.80;6.07;;;7.00;99.90;;;;;;4924086;29;20155;-78
2021/04/22 05:52:51;;;;;;;22.20;5.43;;;7.00;99.90;;;;;;4924120;29;20036;-79
2021/04/22 05:55:17;;;;;;;20.33;5.75;;;7.10;99.90;;;;;;4922962;29;20028;-78
2021/04/22 05:57:44;;;;;;;18.70;5.38;;;7.30;99.90;;;;;;4921001;29;20044;-78
2021/04/22 06:00:12;;;;;;;29.50;6.82;;;7.30;99.90;;;;;;4921266;29;20043;-70
2021/04/22 06:02:39;;;;;;;26.05;5.95;;;7.40;99.90;;;;;;4920357;29;20119;-69
2021/04/22 06:05:05;;;;;;;31.40;6.78;;;7.50;99.90;;;;;;4919260;29;20047;-68
2021/04/22 06:07:31;;;;;;;20.05;6.28;;;7.60;99.90;;;;;;4920685;29;20743;-68
2021/04/22 06:09:57;;;;;;;20.27;5.60;;;7.70;99.90;;;;;;4922820;29;20571;-65
2021/04/22 06:12:23;;;;;;;27.73;6.45;;;7.70;99.90;;;;;;4923920;29;20031;-66
2021/04/22 06:14:49;;;;;;;22.63;6.57;;;7.80;99.90;;;;;;4904232;29;20055;-66
2021/04/22 06:17:15;;;;;;;26.20;5.72;;;7.80;99.90;;;;;;4921473;29;20064;-65
2021/04/22 06:19:41;;;;;;;22.25;5.10;;;7.90;99.90;;;;;;4920989;29;20027;-66
2021/04/22 06:22:07;;;;;;;28.88;7.15;;;8.00;99.90;;;;;;4922143;29;20035;-66
2021/04/22 06:24:33;;;;;;;25.40;7.70;;;8.20;99.90;;;;;;4922299;29;20035;-65
2021/04/22 06:26:59;;;;;;;17.30;5.50;;;8.20;99.90;;;;;;4922396;29;20027;-67
2021/04/22 06:29:25;;;;;;;24.45;5.55;;;8.30;99.90;;;;;;4922921;29;20742;-67
2021/04/22 06:31:51;;;;;;;22.77;5.68;;;8.50;99.90;;;;;;4921476;29;20467;-68
2021/04/22 06:34:17;;;;;;;24.52;5.90;;;8.60;99.90;;;;;;4920926;29;20067;-67
2021/04/22 06:36:44;;;;;;;27.00;6.25;;;8.70;99.90;;;;;;4920746;29;20122;-67
2021/04/22 06:39:10;;;;;;;20.73;5.45;;;8.90;99.90;;;;;;4921263;29;20545;-67
2021/04/22 06:41:36;;;;;;;21.73;6.05;;;8.80;99.90;;;;;;4922390;29;20040;-67
2021/04/22 06:44:03;;;;;;;21.48;6.38;;;8.70;99.90;;;;;;4903492;29;20448;-70
2021/04/22 06:46:31;;;;;;;27.88;5.45;;;8.90;99.90;;;;;;4922467;29;20040;-66
2021/04/22 06:48:56;;;;;;;24.42;5.85;;;9.00;99.90;;;;;;4922505;29;20039;-70
2021/04/22 06:51:22;;;;;;;15.43;5.22;;;9.10;99.90;;;;;;4922077;29;20062;-68
2021/04/22 06:53:48;;;;;;;25.90;6.93;;;9.00;99.90;;;;;;4920815;29;20038;-67
2021/04/22 06:56:14;;;;;;;25.67;5.55;;;8.80;99.90;;;;;;4921198;29;20027;-67
2021/04/22 06:58:40;;;;;;;19.63;5.70;;;9.00;99.90;;;;;;4922168;29;20034;-67
2021/04/22 07:01:05;;;;;;;23.95;5.18;;;9.20;99.90;;;;;;4919231;29;20028;-67
2021/04/22 07:03:31;;;;;;;19.45;5.65;;;9.40;99.90;;;;;;4918419;29;20551;-69
2021/04/22 07:05:57;;;;;;;17.65;4.35;;;9.50;99.90;;;;;;4902979;29;20035;-69
2021/04/22 07:08:23;;;;;;;26.27;7.22;;;9.50;99.90;;;;;;4919127;29;20614;-69
2021/04/22 07:10:49;;;;;;;18.30;4.30;;;9.40;99.90;;;;;;4919521;29;20136;-69
2021/04/22 07:13:15;;;;;;;19.13;5.07;;;9.40;99.90;;;;;;4920478;29;20039;-69
2021/04/22 07:15:41;;;;;;;16.85;5.47;;;9.30;99.90;;;;;;4919200;29;20042;-70
2021/04/22 07:18:08;;;;;;;17.95;5.28;;;9.40;99.90;;;;;;4918335;29;20435;-70
2021/04/22 07:20:34;;;;;;;18.50;5.20;;;9.40;99.90;;;;;;4883830;29;20045;-69
2021/04/22 07:23:00;;;;;;;22.27;5.28;;;9.30;99.90;;;;;;4917995;29;20031;-69
2021/04/22 07:25:33;;;;;;;21.38;5.70;;;9.10;99.90;;;;;;4901451;29;20709;-69
2021/04/22 07:28:00;;;;;;;17.70;6.45;;;9.10;99.90;;;;;;4920313;29;20046;-69
2021/04/22 07:30:27;;;;;;;21.90;4.78;;;9.20;99.90;;;;;;4918476;29;20050;-69
2021/04/22 07:32:53;;;;;;;24.05;5.28;;;9.20;99.90;;;;;;4916642;29;20491;-70
2021/04/22 07:35:19;;;;;;;22.48;5.85;;;9.20;99.90;;;;;;4916164;29;20142;-69
2021/04/22 07:37:47;;;;;;;16.90;4.80;;;9.10;99.90;;;;;;4918926;29;20579;-69
2021/04/22 07:40:16;;;;;;;20.38;4.70;;;8.90;99.90;;;;;;4919310;29;20834;-70
2021/04/22 07:42:42;;;;;;;24.95;6.18;;;8.90;99.90;;;;;;4917240;29;20126;-69
2021/04/22 07:45:08;;;;;;;16.15;4.93;;;8.80;99.90;;;;;;4918886;29;20031;-69
2021/04/22 07:47:34;;;;;;;18.92;6.13;;;8.70;99.90;;;;;;4902006;29;20036;-70
2021/04/22 07:50:00;;;;;;;18.05;5.10;;;8.50;99.90;;;;;;4921477;29;20063;-69
2021/04/22 07:52:26;;;;;;;24.67;6.28;;;8.50;99.90;;;;;;4921639;29;20032;-69
2021/04/22 07:54:53;;;;;;;20.15;5.88;;;8.70;99.90;;;;;;4922316;29;20042;-69
2021/04/22 07:57:19;;;;;;;24.60;5.57;;;8.80;99.90;;;;;;4922427;29;20117;-70
2021/04/22 07:59:45;;;;;;;19.30;4.28;;;8.80;99.90;;;;;;4918627;29;20043;-69
2021/04/22 08:02:11;;;;;;;15.90;4.38;;;8.50;99.90;;;;;;4920586;29;20035;-69
2021/04/22 08:04:37;;;;;;;17.27;4.85;;;8.30;99.90;;;;;;4918758;29;20035;-66
2021/04/22 08:07:03;;;;;;;17.10;5.25;;;8.20;99.90;;;;;;4921040;29;20762;-66
2021/04/22 08:09:31;;;;;;;25.95;5.35;;;8.20;99.90;;;;;;4922515;29;20043;-67
2021/04/22 08:11:57;;;;;;;17.35;5.68;;;8.20;99.90;;;;;;4920989;29;20039;-66
2021/04/22 08:14:23;;;;;;;24.73;6.22;;;8.40;99.90;;;;;;4919633;29;20035;-67
2021/04/22 08:16:48;;;;;;;20.50;6.07;;;8.60;99.90;;;;;;4919592;29;20051;-66
2021/04/22 08:19:14;;;;;;;21.90;5.80;;;8.60;99.90;;;;;;4919904;29;20119;-67
2021/04/22 08:21:40;;;;;;;22.55;6.78;;;8.50;99.90;;;;;;4921159;29;20483;-67
2021/04/22 08:24:07;;;;;;;24.08;5.05;;;8.40;99.90;;;;;;4921311;29;20038;-67
2021/04/22 08:26:33;;;;;;;25.02;6.82;;;8.50;99.90;;;;;;4921972;29;20749;-67
2021/04/22 08:28:58;;;;;;;27.17;7.45;;;8.40;99.90;;;;;;4922916;29;20101;-67
2021/04/22 08:31:25;;;;;;;20.08;6.28;;;8.40;99.90;;;;;;4925984;29;20476;-66
2021/04/22 08:33:55;;;;;;;24.33;6.25;;;8.50;99.90;;;;;;4924915;29;20039;-67
2021/04/22 08:36:21;;;;;;;21.17;6.47;;;8.60;99.90;;;;;;4924757;29;20110;-67
2021/04/22 08:38:49;;;;;;;32.67;6.95;;;8.60;99.90;;;;;;4925405;29;20106;-66
2021/04/22 08:41:15;;;;;;;22.63;6.78;;;8.60;99.90;;;;;;4925159;29;20036;-66
2021/04/22 08:43:42;;;;;;;25.77;7.10;;;8.70;99.90;;;;;;4924990;29;20432;-67
2021/04/22 08:46:08;;;;;;;24.33;7.28;;;8.70;99.90;;;;;;4924358;29;20023;-67
2021/04/22 08:48:36;;;;;;;16.08;6.32;;;8.80;99.90;;;;;;4923207;29;20122;-69
2021/04/22 08:51:04;;;;;;;25.05;7.35;;;8.90;99.90;;;;;;4924171;29;20047;-70
2021/04/22 08:53:35;;;;;;;23.70;7.53;;;9.00;99.90;;;;;;4906681;29;20039;-69
2021/04/22 08:56:02;;;;;;;26.45;7.35;;;8.80;99.90;;;;;;4906424;29;20570;-69
2021/04/22 08:58:28;;;;;;;20.77;6.63;;;8.70;99.90;;;;;;4921857;29;20043;-69
2021/04/22 09:00:58;;;;;;;21.63;7.57;;;8.60;99.90;;;;;;4923299;29;20023;-69
2021/04/22 09:03:24;;;;;;;25.25;7.05;;;8.60;99.90;;;;;;4919481;29;20039;-68
2021/04/22 09:05:50;;;;;;;28.13;9.55;;;8.70;99.90;;;;;;4923619;29;20036;-69
2021/04/22 09:08:18;;;;;;;26.25;8.30;;;8.90;99.90;;;;;;4924355;29;20107;-69
2021/04/22 09:10:44;;;;;;;24.13;6.03;;;9.10;99.90;;;;;;4924227;29;20063;-68
2021/04/22 09:13:16;;;;;;;20.35;6.45;;;9.10;99.90;;;;;;4924060;29;20119;-69
2021/04/22 09:15:45;;;;;;;20.02;7.50;;;9.30;99.90;;;;;;4924052;29;20148;-69
2021/04/22 09:18:13;;;;;;;20.88;6.90;;;9.40;99.90;;;;;;4924151;29;20019;-68
2021/04/22 09:20:45;;;;;;;27.75;6.60;;;9.40;99.90;;;;;;4923672;29;20032;-68
2021/04/22 09:23:30;;;;;;;25.27;6.82;;;9.40;99.90;;;;;;4923996;29;20138;-68
2021/04/22 09:26:06;;;;;;;29.90;7.25;;;9.60;99.90;;;;;;4921728;29;20043;-68
2021/04/22 09:28:44;;;;;;;23.30;6.20;;;9.70;99.90;;;;;;4924313;29;20578;-68
2021/04/22 09:31:11;;;;;;;18.02;5.70;;;9.80;99.90;;;;;;4923281;29;20047;-69
2021/04/22 09:33:39;;;;;;;17.20;6.05;;;10.10;99.90;;;;;;4924246;29;20067;-69
2021/04/22 09:36:10;;;;;;;20.98;6.00;;;11.00;99.90;;;;;;4923460;29;20028;-70
2021/04/22 09:38:37;;;;;;;19.17;5.90;;;11.00;99.90;;;;;;4923330;29;20605;-69
2021/04/22 09:41:13;;;;;;;23.70;6.90;;;11.10;99.90;;;;;;4923563;29;20122;-69
2021/04/22 09:43:40;;;;;;;24.60;6.53;;;11.20;99.90;;;;;;4920550;29;20194;-69
2021/04/22 09:46:16;;;;;;;26.17;6.32;;;11.30;99.90;;;;;;4918652;29;20119;-69
2021/04/22 09:48:42;;;;;;;22.45;6.32;;;11.40;99.90;;;;;;4923148;29;20039;-69
2021/04/22 09:51:12;;;;;;;22.08;7.35;;;11.40;99.90;;;;;;4921349;29;20444;-69
2021/04/22 09:53:38;;;;;;;28.38;7.50;;;11.40;99.90;;;;;;4921820;29;20035;-69
2021/04/22 09:56:11;;;;;;;19.77;5.88;;;11.50;99.90;;;;;;4918695;29;20038;-69
2021/04/22 09:58:38;;;;;;;21.92;6.82;;;11.70;99.90;;;;;;4917581;29;20078;-69
2021/04/22 10:01:06;;;;;;;27.17;6.18;;;11.80;99.90;;;;;;4922248;29;20038;-69
2021/04/22 10:03:33;;;;;;;20.38;5.88;;;11.50;99.90;;;;;;4919914;29;20039;-69
2021/04/22 10:06:04;;;;;;;16.83;5.53;;;11.60;99.90;;;;;;4920258;29;20797;-69
2021/04/22 10:08:30;;;;;;;18.58;5.65;;;12.10;99.90;;;;;;4903452;29;20048;-69
2021/04/22 10:11:04;;;;;;;19.63;5.65;;;12.40;99.90;;;;;;4921350;29;20629;-70
2021/04/22 10:13:41;;;;;;;20.17;4.80;;;12.50;99.90;;;;;;4919858;29;20059;-70
2021/04/22 10:16:07;;;;;;;19.48;5.47;;;12.30;99.90;;;;;;4921699;29;20873;-70
2021/04/22 10:18:44;;;;;;;19.65;5.30;;;12.50;99.90;;;;;;4920704;29;20031;-66
2021/04/22 10:21:12;;;;;;;19.00;5.82;;;12.70;99.90;;;;;;4920710;29;20038;-65
2021/04/22 10:23:38;;;;;;;23.55;6.50;;;12.90;99.90;;;;;;4904292;29;20027;-65
2021/04/22 10:26:04;;;;;;;21.38;7.35;;;13.10;99.90;;;;;;4918891;29;20042;-65
2021/04/22 10:28:31;;;;;;;13.95;5.95;;;13.10;99.90;;;;;;4919426;29;20399;-66
2021/04/22 10:30:57;;;;;;;17.75;5.97;;;13.10;99.90;;;;;;4920677;29;20047;-65
2021/04/22 10:33:26;;;;;;;20.85;6.28;;;12.80;99.90;;;;;;4918105;29;21120;-66
2021/04/22 10:35:52;;;;;;;18.05;5.80;;;12.90;99.90;;;;;;4919125;29;20114;-66
2021/04/22 10:38:20;;;;;;;25.15;7.20;;;12.80;99.90;;;;;;4920012;29;20035;-65
2021/04/22 10:40:49;;;;;;;24.02;6.45;;;13.10;99.90;;;;;;4921553;29;20479;-65
2021/04/22 10:43:24;;;;;;;21.17;6.57;;;13.30;99.90;;;;;;4922524;29;20063;-66
2021/04/22 10:45:52;;;;;;;22.50;6.05;;;13.20;99.90;;;;;;4921842;29;20071;-66
2021/04/22 10:48:19;;;;;;;12.23;4.38;;;13.00;99.90;;;;;;4918327;29;20814;-65
2021/04/22 10:50:48;;;;;;;19.00;5.22;;;12.70;99.90;;;;;;4919842;29;20079;-65
2021/04/22 10:53:17;;;;;;;15.52;4.57;;;13.10;99.90;;;;;;4920158;29;20051;-65
2021/04/22 10:55:44;;;;;;;20.77;5.90;;;13.40;99.90;;;;;;4921322;29;20031;-65
2021/04/22 10:58:22;;;;;;;28.25;7.03;;;13.70;99.90;;;;;;4919607;29;20563;-66
2021/04/22 11:00:54;;;;;;;17.42;5.18;;;13.70;99.70;;;;;;4921163;29;20032;-65
2021/04/22 11:03:24;;;;;;;13.57;4.18;;;13.60;99.00;;;;;;4918915;29;20032;-65
2021/04/22 11:06:09;;;;;;;15.43;4.78;;;13.60;99.90;;;;;;4920527;29;20087;-65
2021/04/22 11:08:46;;;;;;;14.18;4.75;;;13.90;99.70;;;;;;4921214;29;20085;-65
2021/04/22 11:11:15;;;;;;;22.17;4.75;;;14.00;98.70;;;;;;4919323;29;20403;-66
2021/04/22 11:13:42;;;;;;;22.52;5.32;;;13.80;98.10;;;;;;4921522;29;20440;-66
2021/04/22 11:16:08;;;;;;;15.18;4.90;;;13.60;99.30;;;;;;4922065;29;20391;-65
2021/04/22 11:18:37;;;;;;;20.27;4.63;;;14.10;99.90;;;;;;4921514;29;20034;-65
2021/04/22 11:21:05;;;;;;;17.77;4.18;;;14.20;97.20;;;;;;4921732;29;20122;-67
2021/04/22 11:23:40;;;;;;;19.08;4.65;;;14.10;97.30;;;;;;4899762;29;20623;-66
2021/04/22 11:26:21;;;;;;;14.43;4.45;;;14.10;97.70;;;;;;4919583;29;20104;-66
2021/04/22 11:28:47;;;;;;;18.98;4.70;;;14.00;96.80;;;;;;4918201;29;20036;-66
2021/04/22 11:31:16;;;;;;;17.67;4.72;;;13.70;97.30;;;;;;4919157;29;20039;-65
2021/04/22 11:33:43;;;;;;;28.15;6.03;;;13.70;99.90;;;;;;4921087;29;20399;-66
2021/04/22 11:36:13;;;;;;;18.55;5.53;;;13.60;98.60;;;;;;4919140;29;20045;-65
2021/04/22 11:38:57;;;;;;;25.10;4.95;;;13.60;97.90;;;;;;4915003;29;20038;-66
2021/04/22 11:41:27;;;;;;;18.65;4.63;;;13.60;98.80;;;;;;4920429;29;20110;-65
2021/04/22 11:44:12;;;;;;;17.52;5.03;;;14.10;99.60;;;;;;4919342;29;20042;-66
2021/04/22 11:46:44;;;;;;;24.70;5.30;;;13.80;99.90;;;;;;4921026;29;20213;-65
2021/04/22 11:49:25;;;;;;;18.70;4.93;;;13.50;99.70;;;;;;4918838;29;20531;-66
2021/04/22 11:51:52;;;;;;;17.45;4.43;;;13.60;99.90;;;;;;4920076;29;20055;-65
2021/04/22 11:54:22;;;;;;;15.77;4.75;;;13.90;99.60;;;;;;4919134;29;20040;-65
2021/04/22 11:57:04;;;;;;;18.73;5.20;;;13.90;99.90;;;;;;4917729;29;20491;-65
2021/04/22 11:59:30;;;;;;;14.80;4.10;;;14.00;99.90;;;;;;4918703;29;20032;-66
2021/04/22 12:02:04;;;;;;;19.73;5.25;;;13.80;98.50;;;;;;4914113;29;20043;-66
2021/04/22 12:04:47;;;;;;;24.48;5.57;;;13.90;99.10;;;;;;4916209;29;20086;-65
2021/04/22 12:07:15;;;;;;;26.13;5.57;;;13.60;99.80;;;;;;4905867;29;20131;-65
2021/04/22 12:09:52;;;;;;;20.40;5.55;;;13.60;99.90;;;;;;4921300;29;20039;-66
2021/04/22 12:12:29;;;;;;;24.33;5.07;;;13.70;99.90;;;;;;4922794;29;20031;-65
2021/04/22 12:14:57;;;;;;;22.63;4.00;;;13.90;99.90;;;;;;4924265;29;20032;-65
2021/04/22 12:17:33;;;;;;;24.20;4.65;;;13.90;99.20;;;;;;4923791;29;20044;-66
2021/04/22 12:20:10;;;;;;;19.83;5.53;;;13.50;99.90;;;;;;4925811;29;20038;-65
2021/04/22 12:22:38;;;;;;;19.20;3.92;;;13.70;99.90;;;;;;4924615;29;20035;-65
2021/04/22 12:25:19;;;;;;;14.52;4.05;;;13.80;99.50;;;;;;4922468;29;20027;-67
2021/04/22 12:28:02;;;;;;;22.73;5.72;;;13.60;99.10;;;;;;4924340;29;20028;-65
2021/04/22 12:30:36;;;;;;;20.40;4.78;;;13.60;99.40;;;;;;4924420;29;20044;-66
2021/04/22 12:33:11;;;;;;;16.55;4.78;;;13.60;99.80;;;;;;4923589;29;20483;-65
2021/04/22 12:35:40;;;;;;;22.10;4.88;;;13.70;99.50;;;;;;4923668;29;20038;-66
2021/04/22 12:38:20;;;;;;;20.38;3.95;;;14.00;99.00;;;;;;4922303;29;20558;-66
2021/04/22 12:40:52;;;;;;;;;;;14.20;98.70;;;;;;4924131;29;20036;-66
2021/04/22 12:43:18;;;;;;;18.73;4.30;;;13.70;98.20;;;;;;4900296;29;19914;-66
2021/04/22 12:45:44;;;;;;;21.70;4.28;;;13.20;98.40;;;;;;4923090;29;20032;-65
2021/04/22 12:48:09;;;;;;;18.55;5.00;;;13.00;99.00;;;;;;4921578;29;20094;-65
2021/04/22 12:50:39;;;;;;;28.58;5.57;;;12.70;99.50;;;;;;4919508;29;20070;-65